Time;durP1;ratioP1;P1;durP2;ratioP2;P2;SDS_P1;SDS_P2;PMS_P1;PMS_P2;Temp;Humidity;BMP_temperature;BMP_pressure;BME280_temperature;BME280_humidity;BME280_pressure;Samples;Min_cycle;Max_cycle;Signal;HPM_P1;HPM_P2
2023/10/21 00:02:21;;;;;;;18.70;12.35;;;12.90;94.00;;;;;;6200326;23;20062;-96
2023/10/21 00:04:47;;;;;;;16.50;10.65;;;13.00;94.10;;;;;;6222152;23;20016;-95
2023/10/21 00:07:12;;;;;;;16.23;11.85;;;12.90;94.00;;;;;;6200623;23;20355;-95
2023/10/21 00:09:38;;;;;;;15.77;11.63;;;13.20;94.10;;;;;;6197374;23;20021;-95
2023/10/21 00:12:06;;;;;;;17.15;10.95;;;12.80;93.90;;;;;;6196029;23;20100;-94
2023/10/21 00:14:33;;;;;;;15.63;11.40;;;12.80;93.90;;;;;;6199650;23;20017;-95
2023/10/21 00:16:59;;;;;;;16.70;10.85;;;12.80;93.90;;;;;;6217429;23;20016;-95
2023/10/21 00:19:25;;;;;;;15.43;10.40;;;12.80;93.80;;;;;;6190786;23;20024;-95
2023/10/21 00:21:50;;;;;;;15.63;10.00;;;12.70;93.80;;;;;;6190470;23;20454;-92
2023/10/21 00:24:16;;;;;;;15.10;10.50;;;12.80;93.80;;;;;;6213376;23;20013;-93
2023/10/21 00:26:49;;;;;;;15.68;10.57;;;12.70;93.70;;;;;;6189133;23;20013;-93
2023/10/21 00:29:15;;;;;;;15.20;9.90;;;12.70;93.70;;;;;;6189225;23;20017;-93
2023/10/21 00:31:42;;;;;;;17.40;9.82;;;12.60;93.60;;;;;;6191180;23;20020;-93
2023/10/21 00:34:07;;;;;;;15.40;10.40;;;12.60;93.60;;;;;;6216550;23;20017;-92
2023/10/21 00:36:33;;;;;;;13.18;9.57;;;12.60;93.50;;;;;;6215772;23;20032;-90
2023/10/21 00:38:58;;;;;;;15.98;9.85;;;12.50;93.50;;;;;;6193138;23;20091;-93
2023/10/21 00:41:24;;;;;;;12.13;8.45;;;12.50;93.50;;;;;;6217882;23;20016;-93
2023/10/21 00:43:50;;;;;;;17.13;9.55;;;12.50;93.40;;;;;;6192718;23;20051;-94
2023/10/21 00:46:17;;;;;;;15.00;9.25;;;12.60;93.40;;;;;;6218057;23;20377;-94
2023/10/21 00:48:45;;;;;;;17.40;8.68;;;12.90;93.50;;;;;;6193942;23;20062;-94
2023/10/21 00:51:11;;;;;;;12.00;8.98;;;12.40;93.30;;;;;;6195102;23;20100;-94
2023/10/21 00:53:37;;;;;;;16.25;9.48;;;12.30;93.30;;;;;;6200890;23;20021;-94
2023/10/21 00:56:04;;;;;;;15.75;8.45;;;12.30;93.30;;;;;;6198599;23;20017;-93
2023/10/21 00:58:32;;;;;;;11.77;8.18;;;12.30;93.30;;;;;;6224068;23;20016;-93
2023/10/21 01:01:01;;;;;;;14.02;8.73;;;12.20;93.20;;;;;;6199708;23;20227;-94
2023/10/21 01:03:27;;;;;;;14.50;8.85;;;12.20;93.20;;;;;;6204323;23;20016;-94
2023/10/21 01:05:53;;;;;;;14.65;8.35;;;12.20;93.20;;;;;;6227020;23;20019;-94
2023/10/21 01:08:19;;;;;;;13.35;8.23;;;12.20;93.20;;;;;;6192087;23;20008;-94
2023/10/21 01:10:45;;;;;;;20.27;9.82;;;12.40;93.30;;;;;;6192091;23;20005;-94
2023/10/21 01:13:11;;;;;;;13.38;9.13;;;12.10;93.20;;;;;;6216900;23;20008;-94
2023/10/21 01:15:36;;;;;;;13.13;8.20;;;12.10;93.20;;;;;;6219866;23;20017;-94
2023/10/21 01:18:08;;;;;;;11.00;8.35;;;12.10;93.20;;;;;;6218311;23;20402;-94
2023/10/21 01:20:39;;;;;;;15.88;8.60;;;12.10;93.20;;;;;;6191184;23;20119;-93
2023/10/21 01:23:08;;;;;;;12.77;7.78;;;12.10;93.20;;;;;;6190445;23;20028;-92
2023/10/21 01:25:34;;;;;;;13.85;7.93;;;12.00;93.20;;;;;;6190082;23;20115;-92
2023/10/21 01:28:00;;;;;;;15.30;8.43;;;12.00;93.20;;;;;;6190278;23;20009;-91
2023/10/21 01:30:26;;;;;;;13.05;8.88;;;12.00;93.20;;;;;;6189699;23;20030;-93
2023/10/21 01:32:52;;;;;;;16.25;8.43;;;12.00;93.20;;;;;;6190023;23;20012;-93
2023/10/21 01:35:18;;;;;;;10.65;7.38;;;12.00;93.20;;;;;;6189732;23;20454;-93
2023/10/21 01:37:45;;;;;;;13.32;7.90;;;12.00;93.20;;;;;;6190755;23;20008;-93
2023/10/21 01:40:12;;;;;;;11.85;7.47;;;12.00;93.40;;;;;;6189564;23;20017;-93
2023/10/21 01:42:38;;;;;;;14.85;7.70;;;12.00;93.20;;;;;;6189613;23;20446;-93
2023/10/21 01:45:05;;;;;;;13.07;7.53;;;11.90;93.20;;;;;;6189321;23;20099;-94
2023/10/21 01:47:31;;;;;;;11.70;6.68;;;12.00;93.20;;;;;;6189975;23;20016;-92
2023/10/21 01:49:57;;;;;;;11.82;7.30;;;12.20;93.30;;;;;;6215122;23;20035;-92
2023/10/21 01:52:24;;;;;;;11.07;7.15;;;11.90;93.20;;;;;;6191397;23;20092;-92
2023/10/21 01:54:50;;;;;;;15.25;7.85;;;11.90;93.20;;;;;;6215010;23;20008;-91
2023/10/21 01:57:15;;;;;;;14.52;7.60;;;11.90;93.20;;;;;;6190954;23;20156;-92
2023/10/21 01:59:41;;;;;;;12.93;8.32;;;12.20;93.20;;;;;;6193699;23;20395;-92
2023/10/21 02:02:07;;;;;;;11.50;7.68;;;11.90;93.20;;;;;;6217288;23;20012;-92
2023/10/21 02:04:33;;;;;;;13.05;8.63;;;11.90;93.20;;;;;;6189971;23;20012;-92
2023/10/21 02:06:59;;;;;;;14.52;8.20;;;11.80;93.10;;;;;;6214985;23;20004;-92
2023/10/21 02:09:24;;;;;;;14.60;8.63;;;11.80;93.10;;;;;;6189748;23;20024;-92
2023/10/21 02:11:55;;;;;;;15.57;8.70;;;11.80;93.10;;;;;;6189777;23;20075;-92
2023/10/21 02:14:24;;;;;;;13.10;7.80;;;11.80;93.20;;;;;;6214613;23;20058;-93
2023/10/21 02:16:51;;;;;;;16.90;10.02;;;11.80;93.20;;;;;;6189867;23;20012;-91
2023/10/21 02:19:17;;;;;;;17.05;9.93;;;11.80;93.20;;;;;;6214870;23;20038;-90
2023/10/21 02:21:43;;;;;;;13.65;9.70;;;12.10;93.20;;;;;;6214414;23;20614;-91
2023/10/21 02:24:08;;;;;;;18.27;10.85;;;11.70;93.10;;;;;;6189628;23;20063;-92
2023/10/21 02:26:34;;;;;;;17.67;10.70;;;11.70;93.10;;;;;;6189319;23;20016;-92
2023/10/21 02:28:59;;;;;;;21.10;11.20;;;11.70;93.10;;;;;;6189669;23;20036;-90
2023/10/21 02:31:25;;;;;;;19.67;11.98;;;11.70;93.10;;;;;;6189444;23;20511;-92
2023/10/21 02:33:51;;;;;;;17.17;11.95;;;11.70;93.10;;;;;;6189834;23;20035;-92
2023/10/21 02:36:17;;;;;;;19.35;12.45;;;11.70;93.20;;;;;;6215602;23;20012;-91
2023/10/21 02:38:43;;;;;;;21.95;12.38;;;11.70;93.20;;;;;;6190782;23;20067;-91
2023/10/21 02:41:08;;;;;;;18.05;12.20;;;11.60;93.10;;;;;;6166636;23;20464;-92
2023/10/21 02:43:34;;;;;;;19.33;12.48;;;11.60;93.10;;;;;;6164347;23;20020;-92
2023/10/21 02:46:09;;;;;;;21.63;13.52;;;11.70;93.10;;;;;;6164209;23;20048;-92
2023/10/21 02:48:35;;;;;;;20.10;13.05;;;11.70;93.20;;;;;;6189347;23;20015;-92
2023/10/21 02:51:20;;;;;;;22.60;14.10;;;11.60;93.10;;;;;;6164466;23;20079;-92
2023/10/21 02:53:45;;;;;;;20.70;13.82;;;11.60;93.20;;;;;;6164562;23;20015;-91
2023/10/21 02:56:13;;;;;;;22.27;14.77;;;11.60;93.10;;;;;;6164441;23;20009;-92
2023/10/21 02:58:39;;;;;;;26.90;15.45;;;11.60;93.10;;;;;;6164070;23;20012;-91
2023/10/21 03:01:19;;;;;;;25.98;16.33;;;11.60;93.10;;;;;;6164417;23;20449;-92
2023/10/21 03:03:47;;;;;;;24.55;15.95;;;11.60;93.20;;;;;;6191445;23;20005;-93
2023/10/21 03:06:13;;;;;;;25.30;16.17;;;11.60;93.10;;;;;;6164788;23;20741;-92
2023/10/21 03:08:39;;;;;;;25.65;16.10;;;11.60;93.20;;;;;;6164114;23;20409;-92
2023/10/21 03:11:06;;;;;;;28.50;17.48;;;11.60;93.20;;;;;;6164243;23;20063;-91
2023/10/21 03:13:36;;;;;;;23.17;15.70;;;11.60;93.10;;;;;;6164109;23;20464;-91
2023/10/21 03:16:10;;;;;;;30.30;17.85;;;11.60;93.20;;;;;;6189734;23;20055;-90
2023/10/21 03:18:36;;;;;;;;;;;11.60;93.20;;;;;;6165236;23;20011;-92
2023/10/21 03:21:06;;;;;;;26.80;16.92;;;11.60;93.10;;;;;;6164913;23;19991;-92
2023/10/21 03:23:31;;;;;;;29.52;17.67;;;11.90;93.30;;;;;;6165590;23;20414;-92
2023/10/21 03:26:01;;;;;;;26.73;17.45;;;11.60;93.20;;;;;;6189986;23;20029;-93
2023/10/21 03:28:27;;;;;;;26.45;17.40;;;11.60;93.20;;;;;;6190744;23;20099;-92
2023/10/21 03:31:01;;;;;;;26.80;18.27;;;11.60;93.20;;;;;;6191589;23;20040;-92
2023/10/21 03:33:29;;;;;;;27.30;17.67;;;11.70;93.20;;;;;;6193123;23;20033;-92
2023/10/21 03:35:58;;;;;;;27.42;18.90;;;11.50;93.10;;;;;;6167610;23;20350;-92
2023/10/21 03:38:24;;;;;;;28.15;18.20;;;11.60;93.20;;;;;;6163615;23;20008;-92
2023/10/21 03:41:00;;;;;;;30.13;18.00;;;11.60;93.10;;;;;;6135467;23;20019;-92
2023/10/21 03:43:26;;;;;;;29.30;18.38;;;11.60;93.20;;;;;;6134172;23;20191;-92
2023/10/21 03:45:53;;;;;;;25.33;17.92;;;11.50;93.10;;;;;;6134549;23;20044;-92
2023/10/21 03:48:19;;;;;;;29.75;17.85;;;11.50;93.10;;;;;;6134181;23;20040;-92
2023/10/21 03:50:45;;;;;;;26.65;18.17;;;11.50;93.10;;;;;;6159002;23;20013;-93
2023/10/21 03:53:11;;;;;;;31.25;17.92;;;11.50;93.10;;;;;;6134482;23;20031;-92
2023/10/21 03:55:37;;;;;;;26.88;17.80;;;11.50;93.10;;;;;;6158782;23;20013;-92
2023/10/21 03:58:03;;;;;;;27.20;17.00;;;11.50;93.10;;;;;;6137495;23;20048;-92
2023/10/21 04:00:29;;;;;;;27.38;17.90;;;11.50;93.10;;;;;;6139429;23;20534;-92
2023/10/21 04:02:54;;;;;;;27.88;18.23;;;11.50;93.10;;;;;;6135763;23;20016;-92
2023/10/21 04:05:20;;;;;;;24.40;17.95;;;11.40;93.10;;;;;;6158402;23;20155;-92
2023/10/21 04:07:46;;;;;;;28.30;18.73;;;11.50;93.10;;;;;;6158752;23;20127;-90
2023/10/21 04:10:11;;;;;;;32.00;19.45;;;11.50;93.10;;;;;;6134241;23;20040;-90
2023/10/21 04:12:37;;;;;;;28.50;18.00;;;11.50;93.10;;;;;;6158736;23;20331;-91
2023/10/21 04:15:03;;;;;;;30.83;19.50;;;11.50;93.10;;;;;;6134055;23;20031;-91
2023/10/21 04:17:29;;;;;;;30.85;19.08;;;11.40;93.00;;;;;;6133813;23;20092;-90
2023/10/21 04:19:54;;;;;;;28.90;18.63;;;11.40;93.00;;;;;;6158523;23;20096;-91
2023/10/21 04:22:20;;;;;;;28.67;18.88;;;11.40;93.00;;;;;;6134653;23;20446;-91
2023/10/21 04:24:46;;;;;;;27.85;18.45;;;11.80;93.10;;;;;;6134486;23;20013;-92
2023/10/21 04:27:11;;;;;;;28.83;18.80;;;11.40;93.00;;;;;;6135371;23;20430;-91
2023/10/21 04:29:37;;;;;;;27.98;18.80;;;11.40;93.00;;;;;;6134671;23;20017;-92
2023/10/21 04:32:02;;;;;;;25.10;17.83;;;12.00;93.20;;;;;;6133929;23;20071;-92
2023/10/21 04:34:28;;;;;;;28.20;18.05;;;11.40;93.00;;;;;;6158969;23;20363;-92
2023/10/21 04:36:54;;;;;;;24.45;17.35;;;11.40;93.00;;;;;;6158954;23;20087;-91
2023/10/21 04:39:19;;;;;;;29.05;17.02;;;11.90;93.20;;;;;;6158270;23;20024;-92
2023/10/21 04:41:48;;;;;;;27.65;18.20;;;11.40;93.00;;;;;;6134571;23;20017;-92
2023/10/21 04:44:13;;;;;;;27.08;18.25;;;11.40;93.00;;;;;;6159358;23;20009;-91
2023/10/21 04:46:39;;;;;;;28.40;17.10;;;11.40;93.00;;;;;;6159992;23;20032;-92
2023/10/21 04:49:05;;;;;;;24.35;15.63;;;11.40;93.00;;;;;;6135867;23;20013;-92
2023/10/21 04:51:31;;;;;;;27.35;16.45;;;11.50;93.10;;;;;;6135241;23;20043;-92
2023/10/21 04:53:57;;;;;;;29.83;17.63;;;11.40;93.00;;;;;;6160107;23;20037;-92
2023/10/21 04:56:25;;;;;;;26.63;17.83;;;11.40;93.10;;;;;;6166752;23;20029;-92
2023/10/21 04:58:50;;;;;;;24.33;15.48;;;11.40;93.10;;;;;;6160703;23;20501;-91
2023/10/21 05:01:16;;;;;;;24.33;15.52;;;11.40;93.10;;;;;;6135255;23;20197;-91
2023/10/21 05:03:43;;;;;;;22.13;15.05;;;11.40;93.10;;;;;;6160586;23;20299;-92
2023/10/21 05:06:09;;;;;;;31.63;17.73;;;11.40;93.10;;;;;;6133450;23;20009;-92
2023/10/21 05:08:34;;;;;;;26.90;16.83;;;11.30;93.10;;;;;;6133288;23;20036;-92
2023/10/21 05:11:00;;;;;;;21.00;15.25;;;11.40;93.10;;;;;;6133221;23;20009;-91
2023/10/21 05:13:26;;;;;;;24.10;16.73;;;11.40;93.10;;;;;;6133730;23;20016;-92
2023/10/21 05:15:51;;;;;;;25.02;16.27;;;11.40;93.10;;;;;;6134048;23;20060;-91
2023/10/21 05:18:17;;;;;;;23.10;15.93;;;11.40;93.20;;;;;;6135311;23;20053;-92
2023/10/21 05:20:42;;;;;;;20.67;14.77;;;11.40;93.10;;;;;;6160165;23;20020;-92
2023/10/21 05:23:08;;;;;;;21.73;14.38;;;11.40;93.20;;;;;;6135786;23;20009;-92
2023/10/21 05:25:34;;;;;;;22.55;14.77;;;11.40;93.20;;;;;;6159905;23;20016;-91
2023/10/21 05:28:00;;;;;;;25.00;15.68;;;11.40;93.20;;;;;;6135629;23;20047;-93
2023/10/21 05:30:25;;;;;;;22.85;15.52;;;11.40;93.20;;;;;;6159964;23;20027;-92
2023/10/21 05:32:51;;;;;;;24.10;15.85;;;12.00;93.30;;;;;;6159584;23;20075;-92
2023/10/21 05:35:17;;;;;;;20.33;14.32;;;11.40;93.20;;;;;;6184696;23;20024;-93
2023/10/21 05:37:43;;;;;;;21.60;15.35;;;11.40;93.20;;;;;;6159640;23;20045;-93
2023/10/21 05:40:09;;;;;;;22.10;15.38;;;11.40;93.20;;;;;;6135908;23;20021;-92
2023/10/21 05:42:38;;;;;;;22.65;15.25;;;11.40;93.20;;;;;;6135896;23;20096;-93
2023/10/21 05:45:04;;;;;;;21.83;14.02;;;11.40;93.20;;;;;;6161021;23;20071;-94
2023/10/21 05:47:29;;;;;;;20.60;15.55;;;11.40;93.20;;;;;;6161540;23;20017;-93
2023/10/21 05:49:55;;;;;;;20.60;14.57;;;11.50;93.20;;;;;;6136611;23;20438;-94
2023/10/21 05:52:21;;;;;;;21.08;14.98;;;11.60;93.30;;;;;;6161571;23;20013;-93
2023/10/21 05:54:46;;;;;;;20.83;14.68;;;11.50;93.20;;;;;;6137822;23;20537;-93
2023/10/21 05:57:12;;;;;;;21.08;14.68;;;11.80;93.30;;;;;;6163428;23;20023;-93
2023/10/21 05:59:38;;;;;;;23.75;15.05;;;11.50;93.20;;;;;;6142159;23;20017;-92
2023/10/21 06:02:04;;;;;;;20.52;14.00;;;11.90;93.30;;;;;;6143433;23;20058;-92
2023/10/21 06:04:31;;;;;;;18.75;14.15;;;11.40;93.20;;;;;;6151928;23;20021;-92
2023/10/21 06:06:57;;;;;;;20.15;14.13;;;11.50;93.20;;;;;;6136948;23;20017;-92
2023/10/21 06:09:23;;;;;;;19.80;14.75;;;11.50;93.20;;;;;;6135315;23;20340;-91
2023/10/21 06:11:50;;;;;;;20.30;14.25;;;12.00;93.40;;;;;;6135219;23;20044;-93
2023/10/21 06:14:17;;;;;;;19.30;14.40;;;11.50;93.20;;;;;;6159899;23;20024;-93
2023/10/21 06:16:43;;;;;;;24.17;15.00;;;11.50;93.20;;;;;;6135321;23;20013;-93
2023/10/21 06:19:09;;;;;;;20.42;14.15;;;11.60;93.30;;;;;;6159911;23;20092;-93
2023/10/21 06:21:35;;;;;;;19.38;14.32;;;11.50;93.20;;;;;;6134889;23;20450;-93
2023/10/21 06:24:05;;;;;;;20.85;14.75;;;11.50;93.20;;;;;;6135058;23;20442;-92
2023/10/21 06:26:33;;;;;;;26.08;14.60;;;11.50;93.20;;;;;;6159550;23;20020;-93
2023/10/21 06:28:59;;;;;;;21.77;14.40;;;11.50;93.30;;;;;;6159323;23;20474;-93
2023/10/21 06:31:26;;;;;;;23.33;15.40;;;11.50;93.30;;;;;;6134980;23;20017;-93
2023/10/21 06:33:52;;;;;;;23.80;14.90;;;11.50;93.30;;;;;;6159498;23;20017;-93
2023/10/21 06:36:18;;;;;;;23.67;14.98;;;11.50;93.30;;;;;;6134387;23;20047;-93
2023/10/21 06:38:44;;;;;;;20.95;14.90;;;11.60;93.30;;;;;;6137270;23;20013;-92
2023/10/21 06:41:10;;;;;;;19.58;14.40;;;11.60;93.30;;;;;;6165747;23;20012;-93
2023/10/21 06:43:40;;;;;;;26.05;14.82;;;11.60;93.30;;;;;;6164543;23;20005;-93
2023/10/21 06:46:06;;;;;;;21.38;15.23;;;11.60;93.40;;;;;;6164641;23;20004;-93
2023/10/21 06:48:32;;;;;;;21.45;15.10;;;11.60;93.40;;;;;;6165015;23;20012;-93
2023/10/21 06:50:58;;;;;;;22.75;14.65;;;11.70;93.40;;;;;;6189476;23;20009;-93
2023/10/21 06:53:25;;;;;;;20.15;14.77;;;11.70;93.40;;;;;;6165192;23;20009;-92
2023/10/21 06:55:50;;;;;;;21.08;14.60;;;11.70;93.40;;;;;;6165088;23;20016;-92
2023/10/21 06:58:16;;;;;;;22.55;14.48;;;11.80;93.50;;;;;;6165339;23;20020;-93
2023/10/21 07:00:41;;;;;;;20.83;14.13;;;11.80;93.50;;;;;;6166003;23;20016;-93
2023/10/21 07:03:08;;;;;;;21.65;14.05;;;11.80;93.50;;;;;;6191537;23;20004;-92
2023/10/21 07:05:35;;;;;;;21.95;14.68;;;11.80;93.50;;;;;;6164943;23;20442;-93
2023/10/21 07:08:01;;;;;;;23.05;14.85;;;11.80;93.50;;;;;;6165004;23;20442;-92
2023/10/21 07:10:29;;;;;;;22.92;14.93;;;11.90;93.60;;;;;;6189256;23;20035;-92
2023/10/21 07:12:55;;;;;;;22.25;15.60;;;12.00;93.60;;;;;;6189923;23;20452;-93
2023/10/21 07:15:23;;;;;;;26.63;15.02;;;11.90;93.60;;;;;;6165424;23;20012;-92
2023/10/21 07:17:48;;;;;;;26.40;15.02;;;12.10;93.70;;;;;;6166271;23;20008;-92
2023/10/21 07:20:14;;;;;;;21.58;14.32;;;12.00;93.60;;;;;;6166386;23;20019;-92
2023/10/21 07:22:43;;;;;;;25.33;15.13;;;12.00;93.70;;;;;;6167142;23;20016;-92
2023/10/21 07:25:10;;;;;;;20.13;14.80;;;12.10;93.70;;;;;;6192041;23;20051;-92
2023/10/21 07:27:35;;;;;;;24.25;15.07;;;12.50;93.80;;;;;;6191481;23;20020;-90
2023/10/21 07:30:02;;;;;;;25.08;14.75;;;12.20;93.80;;;;;;6164101;23;20016;-90
2023/10/21 07:32:28;;;;;;;23.40;14.13;;;12.30;93.80;;;;;;6163263;23;20027;-90
2023/10/21 07:34:54;;;;;;;18.92;13.80;;;12.20;93.80;;;;;;6163439;23;20013;-89
2023/10/21 07:37:19;;;;;;;23.17;13.95;;;12.30;93.80;;;;;;6163753;23;20553;-94
2023/10/21 07:39:45;;;;;;;22.23;13.80;;;12.70;93.90;;;;;;6198786;23;20012;-95
2023/10/21 07:42:12;;;;;;;24.25;15.35;;;12.60;93.90;;;;;;6214106;23;20019;-95
2023/10/21 07:44:38;;;;;;;21.65;14.25;;;12.40;93.80;;;;;;6189222;23;20019;-95
2023/10/21 07:47:04;;;;;;;20.20;13.32;;;12.30;93.80;;;;;;6188708;23;20013;-94
2023/10/21 07:49:30;;;;;;;21.63;13.43;;;12.40;93.80;;;;;;6189978;23;20032;-92
2023/10/21 07:51:56;;;;;;;21.45;13.43;;;12.40;93.80;;;;;;6233350;23;20012;-95
2023/10/21 07:54:21;;;;;;;21.17;12.88;;;12.50;93.80;;;;;;6221178;23;20468;-96
2023/10/21 07:56:47;;;;;;;21.48;13.57;;;12.40;93.80;;;;;;6221940;23;20027;-96
2023/10/21 07:59:13;;;;;;;20.83;13.68;;;12.40;93.80;;;;;;6225438;23;20017;-93
2023/10/21 08:01:38;;;;;;;21.17;13.60;;;12.90;94.00;;;;;;6220891;23;20019;-95
2023/10/21 08:04:04;;;;;;;20.80;14.15;;;12.60;93.90;;;;;;6215937;23;20009;-94
2023/10/21 08:06:30;;;;;;;21.27;13.80;;;13.20;94.10;;;;;;6214518;23;20040;-94
2023/10/21 08:08:56;;;;;;;19.75;12.80;;;13.20;94.20;;;;;;6189433;23;20048;-93
2023/10/21 08:11:22;;;;;;;14.20;11.95;;;12.80;94.20;;;;;;6189039;23;20438;-96
2023/10/21 08:13:47;;;;;;;14.55;11.40;;;12.90;94.20;;;;;;6214228;23;20013;-95
2023/10/21 08:16:13;;;;;;;18.17;11.23;;;13.00;94.30;;;;;;6188788;23;20023;-96
2023/10/21 08:18:39;;;;;;;11.95;9.13;;;13.20;94.40;;;;;;6189195;23;20013;-95
2023/10/21 08:21:05;;;;;;;14.07;8.90;;;13.30;94.50;;;;;;6189969;23;20044;-95
2023/10/21 08:23:31;;;;;;;12.23;8.55;;;13.40;94.50;;;;;;6190445;23;20039;-95
2023/10/21 08:25:57;;;;;;;11.63;8.30;;;13.50;94.60;;;;;;6192375;23;20009;-95
2023/10/21 08:28:24;;;;;;;10.90;7.30;;;13.90;94.70;;;;;;6190509;23;20063;-95
2023/10/21 08:30:50;;;;;;;10.00;6.57;;;14.00;94.90;;;;;;6220053;23;20013;-94
2023/10/21 08:33:16;;;;;;;10.57;6.72;;;13.90;94.70;;;;;;6204302;23;20035;-93
2023/10/21 08:35:42;;;;;;;7.80;6.57;;;14.00;94.70;;;;;;6201321;23;20016;-94
2023/10/21 08:38:08;;;;;;;9.95;6.60;;;14.10;94.70;;;;;;6190281;23;20370;-95
2023/10/21 08:40:38;;;;;;;8.93;6.47;;;14.30;94.70;;;;;;6190131;23;20017;-93
2023/10/21 08:43:04;;;;;;;9.18;6.18;;;14.60;94.70;;;;;;6214019;23;20151;-94
2023/10/21 08:45:35;;;;;;;9.13;5.85;;;14.60;94.50;;;;;;6189267;23;20016;-93
2023/10/21 08:48:01;;;;;;;11.35;5.75;;;14.70;94.40;;;;;;6214329;23;20013;-94
2023/10/21 08:50:27;;;;;;;7.90;5.60;;;14.70;94.10;;;;;;6214464;23;20017;-94
2023/10/21 08:52:56;;;;;;;9.52;5.15;;;14.90;93.90;;;;;;6216255;23;20027;-92
2023/10/21 08:55:25;;;;;;;6.78;5.28;;;14.90;93.60;;;;;;6190543;23;20013;-91
2023/10/21 08:57:51;;;;;;;9.23;5.53;;;15.00;93.10;;;;;;6191172;23;20091;-94
2023/10/21 09:00:17;;;;;;;9.85;4.90;;;15.10;92.80;;;;;;6190512;23;20060;-94
2023/10/21 09:02:43;;;;;;;7.38;4.47;;;15.10;92.60;;;;;;6190566;23;20099;-94
2023/10/21 09:05:10;;;;;;;9.27;5.03;;;15.10;92.30;;;;;;6217557;23;20044;-94
2023/10/21 09:07:49;;;;;;;9.02;4.38;;;15.10;92.10;;;;;;6190693;23;20008;-93
2023/10/21 09:10:16;;;;;;;8.07;4.03;;;15.20;92.00;;;;;;6191033;23;20055;-93
2023/10/21 09:12:42;;;;;;;7.53;4.60;;;15.20;91.90;;;;;;6216091;23;20012;-94
2023/10/21 09:15:09;;;;;;;9.45;4.25;;;15.20;91.80;;;;;;6191234;23;20008;-95
2023/10/21 09:17:46;;;;;;;10.48;4.45;;;15.20;91.70;;;;;;6190978;23;20035;-93
2023/10/21 09:20:16;;;;;;;5.55;3.85;;;15.30;91.50;;;;;;6215649;23;20445;-94
2023/10/21 09:22:44;;;;;;;5.63;2.85;;;15.20;91.30;;;;;;6215777;23;20059;-92
2023/10/21 09:25:15;;;;;;;5.60;3.35;;;15.20;91.20;;;;;;6190494;23;20035;-94
2023/10/21 09:27:58;;;;;;;7.40;2.90;;;15.20;91.10;;;;;;6215909;23;20092;-93
2023/10/21 09:30:26;;;;;;;5.68;3.03;;;15.20;90.90;;;;;;6190269;23;20027;-91
2023/10/21 09:33:00;;;;;;;6.22;3.58;;;15.20;90.90;;;;;;6215527;23;20410;-91
2023/10/21 09:35:30;;;;;;;7.80;3.60;;;15.10;90.90;;;;;;6215717;23;20012;-91
2023/10/21 09:37:56;;;;;;;6.32;3.47;;;15.10;91.20;;;;;;6190513;23;20528;-91
2023/10/21 09:40:24;;;;;;;5.85;3.60;;;15.10;91.10;;;;;;6215325;23;20012;-91
2023/10/21 09:42:52;;;;;;;4.70;3.08;;;15.10;91.10;;;;;;6192355;23;20008;-91
2023/10/21 09:45:18;;;;;;;7.20;3.25;;;15.10;91.10;;;;;;6217301;23;20446;-89
2023/10/21 09:47:45;;;;;;;7.82;3.53;;;15.00;91.10;;;;;;6220757;23;20008;-90
2023/10/21 09:50:15;;;;;;;8.43;4.13;;;15.00;91.10;;;;;;6192238;23;20019;-91
2023/10/21 09:53:23;;;;;;;7.13;3.28;;;14.90;91.10;;;;;;6190100;23;20016;-91
2023/10/21 09:55:49;;;;;;;5.22;2.88;;;14.90;91.20;;;;;;6102573;23;20124;-90
2023/10/21 09:58:16;;;;;;;5.68;2.95;;;14.90;91.20;;;;;;6106590;23;20074;-91
2023/10/21 10:00:42;;;;;;;4.75;2.67;;;14.80;91.30;;;;;;6111088;23;20014;-92
2023/10/21 10:03:07;;;;;;;6.03;2.33;;;14.80;91.30;;;;;;6099283;23;20100;-92
2023/10/21 10:05:33;;;;;;;4.10;2.92;;;14.80;91.30;;;;;;6077612;23;20018;-91
2023/10/21 10:07:59;;;;;;;6.60;2.65;;;15.30;91.50;;;;;;6100444;23;20014;-91
2023/10/21 10:10:27;;;;;;;3.83;2.60;;;14.70;91.40;;;;;;6076102;23;20018;-91
2023/10/21 10:12:58;;;;;;;4.22;2.25;;;14.70;91.40;;;;;;6099613;23;20538;-92
2023/10/21 10:15:48;;;;;;;3.78;2.00;;;14.80;91.50;;;;;;6076086;23;20017;-90
2023/10/21 10:18:19;;;;;;;4.40;1.98;;;14.70;91.50;;;;;;6100519;23;20018;-89
2023/10/21 10:20:50;;;;;;;2.75;1.45;;;14.60;91.50;;;;;;6076330;23;20391;-90
2023/10/21 10:23:18;;;;;;;2.22;1.00;;;14.60;91.40;;;;;;6075144;23;20014;-90
2023/10/21 10:25:54;;;;;;;3.97;1.50;;;14.70;91.40;;;;;;6100043;23;20021;-88
2023/10/21 10:28:23;;;;;;;3.22;1.10;;;14.60;91.40;;;;;;6098649;23;20010;-91
2023/10/21 10:30:53;;;;;;;3.40;1.33;;;15.00;91.60;;;;;;6206366;23;20012;-90
2023/10/21 10:33:31;;;;;;;2.20;1.23;;;14.60;91.50;;;;;;6189552;23;20051;-91
2023/10/21 10:35:58;;;;;;;2.58;1.02;;;14.60;91.60;;;;;;6214667;23;20460;-91
2023/10/21 10:38:33;;;;;;;2.00;0.98;;;14.60;91.70;;;;;;6189411;23;20009;-91
2023/10/21 10:41:10;;;;;;;4.63;1.35;;;14.60;91.60;;;;;;6213602;23;20054;-90
2023/10/21 10:43:41;;;;;;;2.80;1.10;;;14.60;91.50;;;;;;6189228;23;20013;-92
2023/10/21 10:46:06;;;;;;;2.00;0.93;;;14.70;91.50;;;;;;6214373;23;20499;-92
2023/10/21 10:48:34;;;;;;;2.00;1.10;;;14.70;91.50;;;;;;6214150;23;20012;-92
2023/10/21 10:51:06;;;;;;;2.45;0.75;;;15.00;91.40;;;;;;6188917;23;20425;-91
2023/10/21 10:53:35;;;;;;;2.72;0.80;;;14.70;91.00;;;;;;6213768;23;20008;-93
2023/10/21 10:56:01;;;;;;;2.20;0.77;;;14.90;90.80;;;;;;6214832;23;20131;-92
2023/10/21 10:58:26;;;;;;;2.10;0.88;;;14.70;90.70;;;;;;6191537;23;20020;-90
2023/10/21 11:00:53;;;;;;;1.77;0.60;;;14.80;90.40;;;;;;6215756;23;20008;-91
2023/10/21 11:03:29;;;;;;;2.38;1.20;;;15.00;90.30;;;;;;6233766;23;20107;-90
2023/10/21 11:05:57;;;;;;;2.28;1.00;;;14.80;90.00;;;;;;6237606;23;20017;-90
2023/10/21 11:08:23;;;;;;;2.22;0.90;;;14.80;90.00;;;;;;6212653;23;20094;-90
2023/10/21 11:10:48;;;;;;;2.17;0.73;;;14.80;89.90;;;;;;6220273;23;20012;-91
2023/10/21 11:13:14;;;;;;;2.40;0.88;;;15.00;89.80;;;;;;6213607;23;20013;-88
2023/10/21 11:15:47;;;;;;;2.67;0.73;;;15.00;89.60;;;;;;6213999;23;20507;-90
2023/10/21 11:18:15;;;;;;;3.40;1.00;;;14.90;89.10;;;;;;6190272;23;20012;-89
2023/10/21 11:20:53;;;;;;;2.40;1.17;;;14.80;88.90;;;;;;6189781;23;20013;-91
2023/10/21 11:23:20;;;;;;;1.10;0.70;;;14.90;88.60;;;;;;6214015;23;20433;-90
2023/10/21 11:25:50;;;;;;;1.17;0.73;;;14.80;88.70;;;;;;6188647;23;20008;-88
2023/10/21 11:28:16;;;;;;;2.15;0.70;;;14.80;88.80;;;;;;6189239;23;20009;-90
2023/10/21 11:30:47;;;;;;;2.17;0.80;;;14.80;88.80;;;;;;6187138;23;20012;-88
2023/10/21 11:33:13;;;;;;;3.35;0.65;;;14.80;88.60;;;;;;6212042;23;20040;-88
2023/10/21 11:35:40;;;;;;;1.95;0.88;;;14.80;88.50;;;;;;6212919;23;20012;-91
2023/10/21 11:38:07;;;;;;;3.25;0.70;;;14.80;88.30;;;;;;6211380;23;20465;-89
2023/10/21 11:40:36;;;;;;;1.45;0.65;;;14.90;87.80;;;;;;6212315;23;20083;-88
2023/10/21 11:43:05;;;;;;;2.17;0.70;;;14.80;87.40;;;;;;6213067;23;20488;-90
2023/10/21 11:45:31;;;;;;;1.50;0.60;;;14.80;87.40;;;;;;6213856;23;20009;-91
2023/10/21 11:48:00;;;;;;;2.53;0.60;;;14.80;87.40;;;;;;6187923;23;20019;-91
2023/10/21 11:50:33;;;;;;;1.50;0.50;;;14.80;87.10;;;;;;6189241;23;20012;-93
2023/10/21 11:53:06;;;;;;;2.17;0.75;;;14.80;86.60;;;;;;6189213;23;20012;-92
2023/10/21 11:56:00;;;;;;;2.90;0.70;;;14.80;86.30;;;;;;6215359;23;20013;-91
2023/10/21 12:04:29;;;;;;;3.38;0.93;;;14.90;86.50;;;;;;6215275;23;20096;-93
2023/10/21 12:18:09;;;;;;;3.83;0.70;;;15.10;85.30;;;;;;6131594;23;20390;-88
2023/10/21 12:36:33;;;;;;;2.47;0.65;;;15.20;83.10;;;;;;6127723;23;20120;-88
2023/10/21 12:41:42;;;;;;;2.60;0.60;;;15.30;83.00;;;;;;6127481;23;20493;-89
2023/10/21 12:44:21;;;;;;;3.67;0.90;;;15.30;82.30;;;;;;6103933;23;20467;-88
2023/10/21 12:46:51;;;;;;;3.72;0.80;;;15.30;81.70;;;;;;6103707;23;20188;-88
2023/10/21 12:49:17;;;;;;;3.25;1.00;;;15.30;81.60;;;;;;6127052;23;20029;-88
2023/10/21 12:51:43;;;;;;;4.22;0.98;;;15.30;81.60;;;;;;6160926;23;20070;-87
2023/10/21 12:54:11;;;;;;;2.85;0.85;;;15.30;81.80;;;;;;6212585;23;20021;-88
2023/10/21 12:56:38;;;;;;;9.98;1.42;;;15.30;81.50;;;;;;6211810;23;20020;-85
2023/10/21 12:59:06;;;;;;;1.77;0.60;;;15.50;81.10;;;;;;6210812;23;20017;-88
2023/10/21 13:01:38;;;;;;;2.90;0.80;;;15.40;80.80;;;;;;6186531;23;20070;-88
2023/10/21 13:04:04;;;;;;;1.67;0.60;;;15.40;80.80;;;;;;6186387;23;20092;-86
2023/10/21 13:06:30;;;;;;;3.65;0.98;;;15.40;81.10;;;;;;6211709;23;20131;-86
2023/10/21 13:08:56;;;;;;;3.83;0.68;;;15.30;80.40;;;;;;6213382;23;20012;-86
2023/10/21 13:11:22;;;;;;;3.53;0.70;;;15.40;80.30;;;;;;6188628;23;20433;-86
2023/10/21 13:13:50;;;;;;;1.77;0.70;;;15.30;80.20;;;;;;6187617;23;20062;-86